Time;durP1;ratioP1;P1;durP2;ratioP2;P2;SDS_P1;SDS_P2;PMS_P1;PMS_P2;Temp;Humidity;BMP_temperature;BMP_pressure;BME280_temperature;BME280_humidity;BME280_pressure;Samples;Min_cycle;Max_cycle;Signal;HPM_P1;HPM_P2
2021/09/11 00:01:50;;;;;;;12.20;8.02;;;;;;;18.08;93.93;98671.81;5027221;28;20098;-65
2021/09/11 00:04:15;;;;;;;13.15;7.82;;;;;;;18.05;94.21;98669.28;5026842;28;20025;-65
2021/09/11 00:06:41;;;;;;;11.77;7.30;;;;;;;18.08;94.05;98666.47;5027114;28;20045;-65
2021/09/11 00:09:07;;;;;;;11.73;7.43;;;;;;;18.03;94.29;98669.34;5027031;28;20093;-65
2021/09/11 00:11:32;;;;;;;11.32;7.95;;;;;;;18.02;94.24;98662.31;5027021;28;20063;-65
2021/09/11 00:13:58;;;;;;;10.55;7.28;;;;;;;18.03;94.16;98657.88;5026923;28;20057;-65
2021/09/11 00:16:23;;;;;;;11.27;7.30;;;;;;;18.08;93.88;98661.16;5026912;28;20030;-65
2021/09/11 00:18:49;;;;;;;10.52;7.45;;;;;;;18.05;93.91;98658.63;5026875;28;20017;-65
2021/09/11 00:21:14;;;;;;;12.20;8.38;;;;;;;18.01;93.95;98654.41;5026842;28;20025;-65
2021/09/11 00:23:40;;;;;;;15.43;7.95;;;;;;;18.00;94.00;98658.00;5009152;28;20041;-65
2021/09/11 00:26:06;;;;;;;11.35;8.45;;;;;;;18.01;94.18;98654.41;5026999;28;20068;-65
2021/09/11 00:28:31;;;;;;;12.80;8.35;;;;;;;17.95;94.20;98654.69;5026090;28;20372;-65
2021/09/11 00:30:56;;;;;;;12.27;8.18;;;;;;;17.95;94.12;98655.56;5026673;28;20029;-65
2021/09/11 00:33:22;;;;;;;12.43;8.23;;;;;;;17.96;94.39;98656.41;5026580;28;20045;-65
2021/09/11 00:35:48;;;;;;;10.23;7.88;;;;;;;17.96;94.23;98651.97;5027096;28;20036;-65
2021/09/11 00:38:13;;;;;;;16.73;8.90;;;;;;;18.00;94.22;98660.66;5026500;28;20321;-65
2021/09/11 00:40:39;;;;;;;13.50;8.90;;;;;;;17.97;93.82;98663.47;5026470;28;20028;-65
2021/09/11 00:43:04;;;;;;;11.73;8.88;;;;;;;17.92;94.42;98649.50;5026413;28;20028;-65
2021/09/11 00:45:29;;;;;;;13.02;9.10;;;;;;;17.93;94.42;98649.44;5026284;28;20262;-65
2021/09/11 00:47:55;;;;;;;16.25;9.35;;;;;;;17.99;93.89;98653.59;5026304;28;20095;-65
2021/09/11 00:50:21;;;;;;;14.45;9.93;;;;;;;17.95;94.32;98654.69;5026295;28;20052;-65
2021/09/11 00:52:48;;;;;;;15.10;9.65;;;;;;;17.96;94.21;98662.59;5026483;28;20026;-65
2021/09/11 00:55:14;;;;;;;14.05;8.55;;;;;;;17.94;94.26;98658.31;5026199;28;20028;-65
2021/09/11 00:57:45;;;;;;;13.85;9.27;;;;;;;17.96;94.59;98661.72;5026149;28;20317;-65
2021/09/11 01:00:13;;;;;;;17.65;10.75;;;;;;;17.79;94.88;98659.91;5026123;28;20025;-65
2021/09/11 01:02:39;;;;;;;16.88;9.57;;;;;;;17.89;94.56;98660.31;5025869;28;20026;-65
2021/09/11 01:05:07;;;;;;;16.20;10.43;;;;;;;17.88;94.74;98663.91;5025785;28;20068;-65
2021/09/11 01:07:34;;;;;;;17.80;10.45;;;;;;;17.87;94.37;98659.53;5026198;28;20022;-65
2021/09/11 01:09:59;;;;;;;17.67;10.60;;;;;;;17.87;94.39;98654.22;5025916;28;20335;-65
2021/09/11 01:12:27;;;;;;;14.68;10.13;;;;;;;17.83;94.52;98655.28;5025891;28;20018;-65
2021/09/11 01:14:53;;;;;;;15.27;10.18;;;;;;;17.84;94.61;98652.53;5025821;28;20026;-65
2021/09/11 01:17:18;;;;;;;17.50;10.90;;;;;;;17.82;94.55;98648.22;5025773;28;20076;-65
2021/09/11 01:19:44;;;;;;;15.80;10.65;;;;;;;17.81;94.60;98651.84;5025731;28;20025;-65
2021/09/11 01:22:16;;;;;;;13.48;9.65;;;;;;;17.81;94.58;98651.84;5025760;28;20300;-65
2021/09/11 01:24:52;;;;;;;14.70;10.02;;;;;;;17.81;94.86;98651.84;5025596;28;20132;-65
2021/09/11 01:27:17;;;;;;;16.45;10.18;;;;;;;17.80;94.70;98645.66;5025630;28;20025;-65
2021/09/11 01:29:51;;;;;;;13.77;9.82;;;;;;;17.81;94.67;98654.50;5025578;28;20043;-65
2021/09/11 01:32:16;;;;;;;17.15;10.27;;;;;;;17.85;94.50;98653.41;5025539;28;20013;-65
2021/09/11 01:34:41;;;;;;;20.63;10.07;;;;;;;17.85;94.51;98653.41;5025463;28;20094;-65
2021/09/11 01:37:09;;;;;;;15.05;10.55;;;;;;;17.78;94.38;98649.31;5025391;28;20046;-65
2021/09/11 01:39:35;;;;;;;14.55;10.00;;;;;;;17.82;94.52;98642.91;5024868;28;20018;-65
2021/09/11 01:42:00;;;;;;;14.68;9.98;;;;;;;17.86;94.34;98649.81;5024900;28;20025;-65
2021/09/11 01:44:26;;;;;;;15.32;10.75;;;;;;;17.87;94.05;98652.41;5025255;28;20033;-65
2021/09/11 01:46:51;;;;;;;16.35;11.13;;;;;;;17.83;94.02;98644.63;5025223;28;20018;-65
2021/09/11 01:49:16;;;;;;;17.35;10.18;;;;;;;17.81;94.18;98646.53;5025171;28;20032;-65
2021/09/11 01:51:46;;;;;;;17.67;11.02;;;;;;;17.79;94.10;98643.94;5025155;28;20021;-65
2021/09/11 01:54:11;;;;;;;13.70;9.55;;;;;;;17.84;94.06;98641.88;5025124;28;20094;-65
2021/09/11 01:56:37;;;;;;;15.20;10.00;;;;;;;17.77;94.10;98650.25;5025067;28;20210;-65
2021/09/11 01:59:02;;;;;;;15.57;10.70;;;;;;;17.83;93.86;98652.63;5007499;28;20025;-65
2021/09/11 02:01:27;;;;;;;18.75;10.98;;;;;;;17.79;93.74;98651.91;5025002;28;20028;-65
2021/09/11 02:03:53;;;;;;;15.50;11.20;;;;;;;17.82;93.63;98648.22;5024806;28;20068;-65
2021/09/11 02:06:18;;;;;;;14.05;10.20;;;;;;;17.76;93.75;98654.72;5024762;28;20053;-65
2021/09/11 02:08:43;;;;;;;14.55;9.68;;;;;;;17.73;93.76;98656.66;5024870;28;20017;-65
2021/09/11 02:11:09;;;;;;;19.48;10.13;;;;;;;17.72;93.92;98646.94;5024837;28;20021;-65
2021/09/11 02:13:34;;;;;;;15.95;9.77;;;;;;;17.70;94.16;98656.78;5024793;28;20022;-65
2021/09/11 02:16:02;;;;;;;17.35;10.63;;;;;;;17.69;94.26;98652.41;5024908;28;20125;-65
2021/09/11 02:18:27;;;;;;;15.35;10.70;;;;;;;17.70;93.99;98659.47;5024948;28;20327;-65
2021/09/11 02:20:55;;;;;;;19.17;10.73;;;;;;;17.62;94.41;98661.63;5024670;28;20092;-65
2021/09/11 02:23:21;;;;;;;17.38;10.95;;;;;;;17.60;94.35;98655.50;5024610;28;20026;-65
2021/09/11 02:25:46;;;;;;;17.20;11.43;;;;;;;17.60;94.38;98652.84;5024505;28;20269;-65
2021/09/11 02:28:11;;;;;;;16.83;11.63;;;;;;;17.65;94.28;98651.69;5024530;28;20026;-65
2021/09/11 02:30:37;;;;;;;18.73;11.77;;;;;;;17.63;93.91;98652.72;5024493;28;20022;-65
2021/09/11 02:33:02;;;;;;;17.90;11.57;;;;;;;17.56;94.32;98651.28;5024451;28;20052;-65
2021/09/11 02:35:28;;;;;;;16.20;10.70;;;;;;;17.59;94.61;98645.81;5024423;28;20021;-65
2021/09/11 02:37:53;;;;;;;16.98;11.18;;;;;;;17.51;94.86;98653.28;5024425;28;20317;-65
2021/09/11 02:40:19;;;;;;;15.82;10.85;;;;;;;17.65;94.08;98656.16;5024352;28;20025;-65
2021/09/11 02:42:44;;;;;;;18.02;11.27;;;;;;;17.59;94.23;98656.47;5024334;28;20021;-65
2021/09/11 02:45:10;;;;;;;18.50;11.57;;;;;;;17.57;94.37;98659.19;5024231;28;20325;-65
2021/09/11 02:47:36;;;;;;;17.90;11.20;;;;;;;17.57;94.46;98653.88;5024227;28;20021;-65
2021/09/11 02:50:01;;;;;;;18.90;11.00;;;;;;;17.55;94.70;98657.50;5024256;28;20253;-65
2021/09/11 02:52:27;;;;;;;16.15;11.45;;;;;;;17.59;94.30;98653.78;5023949;28;20021;-65
2021/09/11 02:54:52;;;;;;;25.92;11.43;;;;;;;17.57;94.24;98653.00;5024221;28;20017;-65
2021/09/11 02:57:17;;;;;;;18.65;11.05;;;;;;;17.59;94.32;98653.78;5024371;28;20321;-65
2021/09/11 02:59:43;;;;;;;16.30;9.65;;;;;;;17.55;94.64;98654.84;5006831;28;20097;-65
2021/09/11 03:02:08;;;;;;;15.32;9.73;;;;;;;17.58;94.57;98654.72;5024087;28;20022;-65
2021/09/11 03:04:33;;;;;;;17.83;11.45;;;;;;;17.57;94.75;98653.00;5023752;28;20088;-65
2021/09/11 03:06:59;;;;;;;17.60;11.05;;;;;;;17.56;94.70;98653.94;5024043;28;20310;-65
2021/09/11 03:09:24;;;;;;;15.38;10.88;;;;;;;17.54;94.80;98643.34;5024039;28;20089;-65
2021/09/11 03:11:50;;;;;;;19.73;11.48;;;;;;;17.55;94.70;98646.88;5024017;28;20060;-65
2021/09/11 03:14:15;;;;;;;18.35;11.48;;;;;;;17.51;94.86;98642.63;5023979;28;20025;-65
2021/09/11 03:16:40;;;;;;;18.50;11.73;;;;;;;17.52;94.63;98639.06;5023998;28;20018;-65
2021/09/11 03:19:06;;;;;;;15.90;10.90;;;;;;;17.53;94.64;98646.09;5023946;28;20028;-65
2021/09/11 03:21:31;;;;;;;15.40;10.52;;;;;;;17.47;94.83;98646.38;5023933;28;20021;-65
2021/09/11 03:23:57;;;;;;;14.73;9.98;;;;;;;17.43;94.87;98647.47;5023823;28;20049;-65
2021/09/11 03:26:22;;;;;;;16.65;10.40;;;;;;;17.46;95.03;98644.66;5023871;28;20021;-65
2021/09/11 03:28:48;;;;;;;17.27;10.93;;;;;;;17.44;95.02;98643.84;5023852;28;20022;-65
2021/09/11 03:31:13;;;;;;;15.10;10.07;;;;;;;17.44;95.02;98643.84;5023825;28;20025;-65
2021/09/11 03:33:38;;;;;;;16.95;10.98;;;;;;;17.41;95.13;98644.84;5023810;28;20301;-65
2021/09/11 03:36:04;;;;;;;17.58;10.70;;;;;;;17.43;95.30;98650.13;5023787;28;20022;-65
2021/09/11 03:38:30;;;;;;;16.73;11.90;;;;;;;17.38;95.41;98646.75;5023745;28;20317;-65
2021/09/11 03:40:55;;;;;;;14.95;10.45;;;;;;;17.39;95.53;98646.69;5023740;28;20022;-65
2021/09/11 03:43:21;;;;;;;14.70;10.90;;;;;;;17.42;95.37;98648.34;5023724;28;20352;-65
2021/09/11 03:45:46;;;;;;;20.33;10.60;;;;;;;17.45;95.21;98648.22;5023632;28;20032;-65
2021/09/11 03:48:11;;;;;;;14.95;10.98;;;;;;;17.47;95.37;98646.38;5023684;28;20029;-65
2021/09/11 03:50:37;;;;;;;17.50;10.98;;;;;;;17.49;95.37;98644.53;5023633;28;20025;-65
2021/09/11 03:53:02;;;;;;;17.70;11.25;;;;;;;17.50;95.15;98651.56;5023620;28;20187;-65
2021/09/11 03:55:28;;;;;;;17.02;10.70;;;;;;;17.47;95.31;98646.38;5023702;28;20014;-65
2021/09/11 03:57:53;;;;;;;16.67;10.82;;;;;;;17.49;95.28;98645.34;5023585;28;20041;-65
2021/09/11 04:00:18;;;;;;;17.13;10.98;;;;;;;17.50;94.95;98641.78;5023560;28;20245;-65
2021/09/11 04:02:44;;;;;;;17.60;11.20;;;;;;;17.50;95.32;98644.44;5023464;28;20026;-65
2021/09/11 04:05:10;;;;;;;20.63;11.23;;;;;;;17.51;95.37;98648.81;5026560;28;20031;-65
2021/09/11 04:07:35;;;;;;;14.07;10.18;;;;;;;17.53;95.23;98638.13;5027097;28;20022;-65
2021/09/11 04:10:01;;;;;;;12.68;9.32;;;;;;;17.53;95.28;98651.41;5027040;28;20021;-65
2021/09/11 04:12:26;;;;;;;22.13;11.30;;;;;;;17.53;95.41;98651.41;5027035;28;20317;-65
2021/09/11 04:14:51;;;;;;;16.75;11.00;;;;;;;17.54;95.30;98647.81;5026992;28;20014;-65
2021/09/11 04:17:17;;;;;;;16.55;10.90;;;;;;;17.54;95.19;98645.16;5027158;28;20018;-65
2021/09/11 04:19:42;;;;;;;15.07;10.40;;;;;;;17.53;95.38;98643.44;5026917;28;20029;-65
2021/09/11 04:22:08;;;;;;;18.80;11.05;;;;;;;17.50;95.35;98643.56;5026830;28;20018;-65
2021/09/11 04:24:33;;;;;;;19.98;11.85;;;;;;;17.46;95.65;98644.66;5026723;28;20021;-65
2021/09/11 04:26:58;;;;;;;18.35;11.75;;;;;;;17.47;95.38;98641.94;5026759;28;20068;-65
2021/09/11 04:29:24;;;;;;;16.08;11.38;;;;;;;17.46;95.50;98649.97;5026750;28;20249;-65
2021/09/11 04:31:49;;;;;;;18.10;11.10;;;;;;;17.51;95.60;98651.50;5026644;28;20021;-65
2021/09/11 04:34:14;;;;;;;17.83;11.48;;;;;;;17.50;95.23;98651.56;5026640;28;20018;-65
2021/09/11 04:36:40;;;;;;;17.55;11.57;;;;;;;17.49;95.47;98655.16;5026592;28;20336;-65
2021/09/11 04:39:05;;;;;;;14.52;10.82;;;;;;;17.52;95.66;98649.69;5026513;28;20068;-65
2021/09/11 04:41:31;;;;;;;21.50;11.85;;;;;;;17.49;95.53;98648.03;5026477;28;20388;-65
2021/09/11 04:43:56;;;;;;;20.55;12.10;;;;;;;17.50;95.60;98646.22;5026347;28;20060;-65
2021/09/11 04:46:21;;;;;;;18.80;11.82;;;;;;;17.47;95.90;98647.25;5026418;28;20148;-65
2021/09/11 04:48:47;;;;;;;20.23;11.77;;;;;;;17.50;95.73;98652.44;5026351;28;20225;-65
2021/09/11 04:51:12;;;;;;;14.43;10.05;;;;;;;17.52;95.79;98657.69;5026292;28;20032;-65
2021/09/11 04:53:38;;;;;;;15.13;10.10;;;;;;;17.53;95.68;98648.75;5026244;28;20384;-65
2021/09/11 04:56:03;;;;;;;20.38;11.80;;;;;;;17.57;95.52;98653.00;5026177;28;20088;-65
2021/09/11 04:58:29;;;;;;;15.43;10.73;;;;;;;17.56;95.57;98651.28;5026200;28;20086;-65
2021/09/11 05:00:54;;;;;;;18.48;11.57;;;;;;;17.57;95.25;98656.53;5026153;28;20124;-65
2021/09/11 05:03:20;;;;;;;15.73;11.18;;;;;;;17.58;95.68;98655.59;5025999;28;20229;-65
2021/09/11 05:05:45;;;;;;;18.67;11.93;;;;;;;17.56;95.83;98657.44;5025843;28;20038;-65
2021/09/11 05:08:12;;;;;;;17.58;11.63;;;;;;;17.60;95.97;98658.16;5026003;28;20026;-65
2021/09/11 05:10:37;;;;;;;19.08;11.43;;;;;;;17.61;95.74;98659.88;5025972;28;20029;-65
2021/09/11 05:13:02;;;;;;;19.70;11.27;;;;;;;17.59;95.68;98657.28;5025910;28;20092;-65
2021/09/11 05:15:28;;;;;;;16.92;12.50;;;;;;;17.62;95.66;98664.31;5025727;28;20323;-65
2021/09/11 05:17:53;;;;;;;17.45;11.18;;;;;;;17.61;95.65;98665.22;5025829;28;20044;-65
2021/09/11 05:20:18;;;;;;;19.42;12.98;;;;;;;17.61;95.85;98659.88;5025784;28;20336;-65
2021/09/11 05:22:44;;;;;;;15.75;11.55;;;;;;;17.61;95.71;98665.22;5025719;28;20029;-65
2021/09/11 05:25:11;;;;;;;22.08;12.88;;;;;;;17.60;95.81;98660.84;5025588;28;20052;-65
2021/09/11 05:27:36;;;;;;;15.32;11.73;;;;;;;17.64;95.88;98659.75;5025621;28;20022;-65
2021/09/11 05:30:03;;;;;;;20.98;13.15;;;;;;;17.64;95.55;98655.28;5025623;28;20345;-65
2021/09/11 05:32:28;;;;;;;22.77;12.82;;;;;;;17.68;95.56;98661.34;5025593;28;20022;-65
2021/09/11 05:34:54;;;;;;;18.77;11.75;;;;;;;17.71;95.84;98661.19;5025521;28;20024;-65
2021/09/11 05:37:19;;;;;;;19.52;11.90;;;;;;;17.78;95.63;98667.97;5025471;28;20313;-65
2021/09/11 05:39:44;;;;;;;18.40;12.50;;;;;;;17.81;95.44;98673.16;5025404;28;20022;-65
2021/09/11 05:42:11;;;;;;;22.45;13.50;;;;;;;17.86;95.23;98671.09;5025335;28;20049;-65
2021/09/11 05:44:37;;;;;;;17.95;12.88;;;;;;;17.92;95.03;98670.81;5025241;28;20064;-65
2021/09/11 05:47:03;;;;;;;20.15;12.88;;;;;;;17.97;95.20;98671.47;5025301;28;20021;-65
2021/09/11 05:49:28;;;;;;;20.00;13.52;;;;;;;18.01;95.47;98675.72;5025237;28;20037;-65
2021/09/11 05:51:53;;;;;;;21.13;12.88;;;;;;;18.08;95.21;98671.81;5025189;28;20221;-65
2021/09/11 05:54:19;;;;;;;20.50;14.13;;;;;;;18.15;94.95;98671.44;5025154;28;20049;-65
2021/09/11 05:56:45;;;;;;;20.55;12.82;;;;;;;18.25;94.85;98680.69;5025092;28;20032;-65
2021/09/11 05:59:11;;;;;;;18.92;13.32;;;;;;;18.28;93.64;98675.22;5025068;28;20056;-65
2021/09/11 06:01:36;;;;;;;21.15;14.60;;;;;;;18.37;93.96;98684.59;5025010;28;20026;-65
2021/09/11 06:04:02;;;;;;;20.70;12.65;;;;;;;18.45;93.40;98688.59;5024855;28;20032;-65
2021/09/11 06:06:27;;;;;;;19.20;13.10;;;;;;;18.49;93.49;98690.19;5024757;28;20353;-65
2021/09/11 06:08:53;;;;;;;20.33;13.35;;;;;;;18.52;93.23;98689.16;5024903;28;20026;-65
2021/09/11 06:11:18;;;;;;;22.95;13.60;;;;;;;18.50;93.41;98683.03;5024828;28;20021;-65
2021/09/11 06:13:43;;;;;;;18.88;12.60;;;;;;;18.44;93.36;98683.34;5024774;28;20036;-65
2021/09/11 06:16:09;;;;;;;18.83;12.80;;;;;;;18.46;93.48;98684.13;5024733;28;20030;-65
2021/09/11 06:18:34;;;;;;;26.67;13.82;;;;;;;18.37;93.73;98689.91;5024692;28;20085;-65
2021/09/11 06:21:00;;;;;;;20.13;13.30;;;;;;;18.30;93.72;98689.34;5024656;28;20049;-65
2021/09/11 06:23:27;;;;;;;18.08;12.57;;;;;;;18.38;94.18;98691.66;5024668;28;20034;-65
2021/09/11 06:25:53;;;;;;;20.92;12.98;;;;;;;18.44;93.81;98691.31;5024158;28;20025;-65
2021/09/11 06:28:21;;;;;;;19.70;12.98;;;;;;;18.47;94.08;98696.50;5024464;28;20064;-65
2021/09/11 06:30:46;;;;;;;19.77;13.45;;;;;;;18.51;94.52;98695.44;5024789;28;20049;-65
2021/09/11 06:33:12;;;;;;;23.10;13.80;;;;;;;18.59;94.00;98693.22;5024488;28;20289;-65
2021/09/11 06:35:37;;;;;;;19.73;13.48;;;;;;;18.66;93.68;98694.66;5024503;28;20025;-65
2021/09/11 06:38:02;;;;;;;19.92;12.77;;;;;;;18.60;93.75;98698.50;5024421;28;20026;-65
2021/09/11 06:40:28;;;;;;;24.50;13.70;;;;;;;18.56;93.69;98701.38;5024636;28;20026;-65
2021/09/11 06:42:53;;;;;;;23.27;13.98;;;;;;;18.59;93.62;98706.56;5024423;28;20022;-65
2021/09/11 06:45:19;;;;;;;24.50;14.32;;;;;;;18.55;93.59;98699.66;5024234;28;20025;-65
2021/09/11 06:47:44;;;;;;;23.67;14.63;;;;;;;18.46;93.88;98697.47;5024285;28;20025;-65
2021/09/11 06:50:10;;;;;;;27.20;14.70;;;;;;;18.47;93.81;98696.50;5024247;28;20089;-65
2021/09/11 06:52:36;;;;;;;26.27;13.63;;;;;;;18.45;93.95;98699.25;5024200;28;20032;-65
2021/09/11 06:55:01;;;;;;;23.90;14.50;;;;;;;18.44;93.81;98702.88;5024196;28;20217;-65
2021/09/11 06:57:27;;;;;;;26.08;14.25;;;;;;;18.43;94.28;98700.28;5024199;28;20037;-65
2021/09/11 06:59:52;;;;;;;24.80;14.65;;;;;;;18.39;94.67;98709.38;5024162;28;20025;-65
2021/09/11 07:02:17;;;;;;;22.90;14.10;;;;;;;18.49;93.94;98699.97;5024045;28;20022;-65
2021/09/11 07:04:43;;;;;;;21.05;15.05;;;;;;;18.51;94.26;98708.78;5023835;28;20348;-65
2021/09/11 07:07:08;;;;;;;26.10;14.63;;;;;;;18.53;94.35;98706.88;5024123;28;20025;-65
2021/09/11 07:09:34;;;;;;;21.38;14.70;;;;;;;18.64;94.05;98710.72;5024078;28;20025;-65
2021/09/11 07:11:59;;;;;;;22.40;14.55;;;;;;;18.72;93.28;98703.22;5024064;28;20033;-65
2021/09/11 07:14:25;;;;;;;30.80;14.40;;;;;;;18.70;93.58;98714.91;5024091;28;20026;-65
2021/09/11 07:16:50;;;;;;;23.88;15.98;;;;;;;18.64;94.01;98720.53;5023983;28;20026;-66
2021/09/11 07:19:16;;;;;;;21.73;14.50;;;;;;;18.67;94.94;98717.72;5023961;28;20052;-66
2021/09/11 07:21:41;;;;;;;28.85;16.65;;;;;;;18.65;95.66;98711.59;5023911;28;20309;-66
2021/09/11 07:24:06;;;;;;;24.17;15.38;;;;;;;18.60;95.07;98714.50;5023846;28;20033;-65
2021/09/11 07:26:32;;;;;;;26.73;15.52;;;;;;;18.58;95.14;98707.50;5023895;28;20085;-65
2021/09/11 07:28:57;;;;;;;25.98;16.52;;;;;;;18.62;94.92;98717.94;5023855;28;20021;-65
2021/09/11 07:31:23;;;;;;;30.02;16.38;;;;;;;18.62;94.80;98714.41;5023866;28;20022;-65
2021/09/11 07:33:48;;;;;;;25.80;16.70;;;;;;;18.66;95.15;98721.31;5023829;28;20045;-65
2021/09/11 07:36:14;;;;;;;23.80;16.05;;;;;;;18.69;94.42;98719.38;5023807;28;20025;-65
2021/09/11 07:38:39;;;;;;;24.65;16.23;;;;;;;18.74;94.66;98714.69;5024847;28;20021;-65
2021/09/11 07:41:05;;;;;;;25.05;16.33;;;;;;;18.82;94.54;98719.59;5027649;28;20026;-65
2021/09/11 07:43:31;;;;;;;24.42;15.75;;;;;;;18.95;94.21;98726.03;5027603;28;20026;-65
2021/09/11 07:45:57;;;;;;;24.05;15.43;;;;;;;19.04;93.61;98725.56;5027504;28;20052;-65
2021/09/11 07:48:23;;;;;;;24.45;14.60;;;;;;;19.08;93.21;98721.81;5027507;28;20022;-65
2021/09/11 07:50:48;;;;;;;20.45;13.10;;;;;;;19.13;93.35;98735.75;5027458;28;20232;-65
2021/09/11 07:53:15;;;;;;;23.77;15.10;;;;;;;19.12;92.83;98724.19;5027393;28;20032;-65
2021/09/11 07:55:41;;;;;;;26.42;14.85;;;;;;;19.07;92.82;98725.41;5027644;28;20256;-65
2021/09/11 07:58:06;;;;;;;21.90;14.80;;;;;;;19.13;93.17;98733.09;5027326;28;20026;-65
2021/09/11 08:00:31;;;;;;;21.05;14.93;;;;;;;19.17;92.52;98731.97;5027243;28;20029;-65
2021/09/11 08:02:57;;;;;;;23.67;14.30;;;;;;;19.23;92.44;98731.66;5027183;28;20041;-65
2021/09/11 08:05:23;;;;;;;22.27;13.57;;;;;;;19.31;91.38;98732.16;5026941;28;20052;-65
2021/09/11 08:07:51;;;;;;;19.40;12.70;;;;;;;19.45;90.93;98732.28;5027172;28;20021;-65
2021/09/11 08:10:18;;;;;;;19.48;12.43;;;;;;;19.54;92.20;98741.59;5027102;28;20017;-65
2021/09/11 08:12:43;;;;;;;21.80;12.73;;;;;;;19.64;91.64;98749.03;5027088;28;20021;-65
2021/09/11 08:15:09;;;;;;;17.33;10.05;;;;;;;19.75;89.79;98744.00;5026984;28;20245;-65
2021/09/11 08:17:36;;;;;;;19.52;9.65;;;;;;;19.85;89.80;98752.38;5026980;28;20032;-65
2021/09/11 08:20:04;;;;;;;11.80;7.10;;;;;;;19.87;88.01;98740.63;5027176;28;20217;-65
2021/09/11 08:22:29;;;;;;;9.73;6.38;;;;;;;19.93;86.66;98751.00;5026820;28;20088;-65
2021/09/11 08:24:56;;;;;;;10.23;6.32;;;;;;;19.91;87.13;98752.91;5026811;28;20048;-65
2021/09/11 08:27:22;;;;;;;8.43;5.90;;;;;;;19.98;87.32;98754.28;5026778;28;20088;-65
2021/09/11 08:29:48;;;;;;;9.55;6.45;;;;;;;19.99;87.42;98750.66;5026729;28;20030;-65
2021/09/11 08:32:13;;;;;;;9.65;6.05;;;;;;;20.01;87.03;98758.59;5026704;28;20194;-65
2021/09/11 08:34:38;;;;;;;10.55;5.97;;;;;;;20.05;86.16;98755.66;5026615;28;20018;-65
2021/09/11 08:37:04;;;;;;;12.05;6.00;;;;;;;20.18;85.75;98761.22;5026626;28;20344;-65
2021/09/11 08:39:29;;;;;;;11.38;5.90;;;;;;;20.35;85.61;98759.31;5026545;28;20026;-65
2021/09/11 08:41:56;;;;;;;8.05;5.15;;;;;;;20.49;84.83;98762.09;5026543;28;20021;-65
2021/09/11 08:44:26;;;;;;;12.27;5.57;;;;;;;20.65;84.07;98757.59;5026406;28;20029;-65
2021/09/11 08:46:52;;;;;;;8.68;5.13;;;;;;;20.65;84.90;98760.25;5026729;28;20103;-65
2021/09/11 08:49:18;;;;;;;8.75;4.93;;;;;;;20.56;84.65;98760.78;5025915;28;20030;-65
2021/09/11 08:51:44;;;;;;;8.25;4.90;;;;;;;20.46;86.49;98762.25;5026389;28;20026;-65
2021/09/11 08:54:10;;;;;;;13.85;5.60;;;;;;;20.22;87.48;98768.97;5026329;28;20088;-65
2021/09/11 08:56:40;;;;;;;9.43;6.43;;;;;;;20.07;89.18;98764.47;5026253;28;20022;-65
2021/09/11 08:59:11;;;;;;;12.32;6.57;;;;;;;19.87;91.46;98767.34;5026449;28;20088;-65
2021/09/11 09:01:37;;;;;;;11.25;7.07;;;;;;;19.82;92.39;98764.09;5026224;28;20033;-65
2021/09/11 09:04:03;;;;;;;10.23;6.78;;;;;;;19.80;92.05;98765.97;5025932;28;20072;-65
2021/09/11 09:06:31;;;;;;;10.48;6.78;;;;;;;19.81;91.23;98767.72;5025934;28;20069;-65
2021/09/11 09:09:04;;;;;;;13.50;7.82;;;;;;;20.11;91.67;98763.34;5026007;28;20309;-65
2021/09/11 09:11:31;;;;;;;13.75;8.48;;;;;;;20.17;89.84;98771.06;5025976;28;20021;-65
2021/09/11 09:14:07;;;;;;;13.38;8.05;;;;;;;20.18;90.72;98770.09;5025890;28;20017;-65
2021/09/11 09:16:37;;;;;;;11.95;8.85;;;;;;;20.25;91.52;98773.31;5026194;28;20025;-65
2021/09/11 09:19:12;;;;;;;11.98;8.85;;;;;;;20.30;89.39;98772.09;5025791;28;20044;-65
2021/09/11 09:21:38;;;;;;;11.02;8.60;;;;;;;20.21;89.18;98766.38;5025803;28;20221;-65
2021/09/11 09:24:06;;;;;;;13.38;9.48;;;;;;;20.31;88.70;98768.47;5025708;28;20053;-65
2021/09/11 09:26:52;;;;;;;14.85;9.65;;;;;;;20.45;89.26;98771.25;5025666;28;20221;-65
2021/09/11 09:29:18;;;;;;;16.58;11.13;;;;;;;20.46;88.66;98769.41;5025692;28;20026;-65
2021/09/11 09:31:45;;;;;;;17.10;10.85;;;;;;;20.66;88.56;98771.84;5025549;28;20041;-65
2021/09/11 09:34:26;;;;;;;15.73;10.43;;;;;;;20.85;86.75;98767.13;5025504;28;20057;-65
2021/09/11 09:36:55;;;;;;;16.42;10.50;;;;;;;20.93;86.11;98768.41;5025514;28;20025;-65
2021/09/11 09:39:21;;;;;;;17.58;11.20;;;;;;;21.23;86.38;98765.78;5025400;28;20221;-65
2021/09/11 09:41:51;;;;;;;17.20;10.50;;;;;;;21.29;86.14;98760.88;5025397;28;20081;-65
2021/09/11 09:44:19;;;;;;;19.58;11.60;;;;;;;21.18;84.86;98766.03;5025293;28;20022;-65
2021/09/11 09:46:47;;;;;;;17.00;9.50;;;;;;;21.37;84.61;98762.22;5025325;28;20022;-65
2021/09/11 09:49:23;;;;;;;14.00;9.82;;;;;;;21.64;83.36;98760.56;5025280;28;20018;-65
2021/09/11 09:51:50;;;;;;;16.55;11.50;;;;;;;22.24;82.13;98760.25;5025256;28;20036;-65
2021/09/11 09:54:17;;;;;;;13.65;10.30;;;;;;;22.16;81.03;98764.41;5025205;28;20064;-65
2021/09/11 09:56:43;;;;;;;15.40;10.80;;;;;;;22.02;81.36;98761.75;5025157;28;20217;-65
2021/09/11 09:59:10;;;;;;;13.52;9.45;;;;;;;22.20;78.13;98761.44;5025132;28;20080;-65
2021/09/11 10:01:37;;;;;;;13.27;10.43;;;;;;;22.20;80.97;98764.09;5024249;28;20076;-65
2021/09/11 10:04:14;;;;;;;16.30;10.25;;;;;;;22.26;78.98;98762.84;5007360;28;20045;-65
2021/09/11 10:06:41;;;;;;;16.80;9.85;;;;;;;22.21;79.84;98762.28;5025027;28;20041;-65
2021/09/11 10:09:07;;;;;;;13.63;9.95;;;;;;;22.21;79.39;98756.94;5024928;28;20033;-65
2021/09/11 10:11:42;;;;;;;14.85;10.02;;;;;;;22.30;79.18;98753.66;5024906;28;20140;-65
2021/09/11 10:14:15;;;;;;;16.00;9.07;;;;;;;22.38;78.10;98756.69;5025177;28;20024;-65
2021/09/11 10:16:43;;;;;;;17.38;9.40;;;;;;;22.75;78.71;98751.53;5025047;28;20028;-65
2021/09/11 10:19:19;;;;;;;13.88;8.23;;;;;;;23.01;78.64;98747.09;5024705;28;20032;-65
2021/09/11 10:21:46;;;;;;;11.63;8.43;;;;;;;23.09;75.83;98752.81;5024775;28;20084;-65
2021/09/11 10:24:17;;;;;;;14.90;9.02;;;;;;;23.21;77.21;98747.47;5024555;28;20064;-65
2021/09/11 10:26:44;;;;;;;23.85;8.85;;;;;;;23.09;77.36;98747.44;5007157;28;20046;-65
2021/09/11 10:29:31;;;;;;;15.13;9.07;;;;;;;23.15;77.96;98753.25;5024617;28;20017;-65
2021/09/11 10:31:59;;;;;;;11.02;7.40;;;;;;;22.94;76.56;98751.19;5024594;28;20017;-65
2021/09/11 10:34:53;;;;;;;11.63;7.93;;;;;;;22.89;78.80;98755.97;5024489;28;20060;-65
2021/09/11 10:38:03;;;;;;;13.52;9.55;;;;;;;22.79;81.96;98754.88;5024486;28;20340;-65
2021/09/11 10:40:31;;;;;;;13.57;8.77;;;;;;;22.79;82.31;98744.13;4945126;29;20071;-65
2021/09/11 10:43:12;;;;;;;12.02;8.45;;;;;;;22.77;81.64;98740.69;4945173;29;20082;-65
2021/09/11 10:45:54;;;;;;;14.13;8.80;;;;;;;22.64;81.91;98750.53;4945101;29;20043;-65
2021/09/11 10:48:31;;;;;;;13.50;9.77;;;;;;;22.50;81.35;98745.22;4945034;29;20039;-65
2021/09/11 10:50:57;;;;;;;14.07;8.50;;;;;;;22.46;82.42;98740.97;4945011;29;20300;-65
2021/09/11 10:53:24;;;;;;;15.20;9.10;;;;;;;22.47;82.61;98742.69;4944964;29;20043;-65
2021/09/11 10:55:50;;;;;;;12.30;8.18;;;;;;;22.69;79.43;98743.03;4944945;29;20038;-65
2021/09/11 10:58:25;;;;;;;11.00;7.68;;;;;;;23.08;78.24;98743.91;4944982;29;20453;-65
2021/09/11 11:01:00;;;;;;;13.82;7.15;;;;;;;23.23;75.13;98739.34;4944887;29;20098;-65
2021/09/11 11:03:27;;;;;;;13.52;7.72;;;;;;;23.10;77.43;98733.06;4944840;29;20023;-65
2021/09/11 11:06:03;;;;;;;11.93;8.18;;;;;;;23.10;78.41;98727.69;4944610;29;20036;-65
2021/09/11 11:08:31;;;;;;;11.55;6.50;;;;;;;23.04;78.82;98736.16;4944893;29;20040;-65
2021/09/11 11:10:57;;;;;;;9.98;6.85;;;;;;;23.35;77.92;98725.06;4944865;29;20035;-65
2021/09/11 11:13:23;;;;;;;12.20;8.13;;;;;;;23.32;74.61;98738.72;4952743;28;20035;-65
2021/09/11 11:15:57;;;;;;;10.77;7.30;;;;;;;23.04;76.63;98744.22;5028130;28;20028;-65
2021/09/11 11:18:26;;;;;;;11.18;6.78;;;;;;;22.92;77.03;98734.31;5028059;28;20072;-65